sensor_id;sensor_type;location;lat;lon;timestamp;pressure;altitude;pressure_sealevel;temperature;humidity
6024;BME280;3040;42.654;23.296;2023-05-19T00:00:06;94452.22;;;13.04;87.24
6024;BME280;3040;42.654;23.296;2023-05-19T00:02:34;94459.78;;;13.02;88.72
6024;BME280;3040;42.654;23.296;2023-05-19T00:05:04;94456.88;;;13.07;88.38
6024;BME280;3040;42.654;23.296;2023-05-19T00:07:31;94462.41;;;13.14;87.61
6024;BME280;3040;42.654;23.296;2023-05-19T00:09:59;94448.75;;;13.35;88.51
6024;BME280;3040;42.654;23.296;2023-05-19T00:12:26;94452.63;;;13.37;86.29
6024;BME280;3040;42.654;23.296;2023-05-19T00:14:54;94447.28;;;13.37;87.14
6024;BME280;3040;42.654;23.296;2023-05-19T00:17:23;94426.38;;;13.24;86.35
6024;BME280;3040;42.654;23.296;2023-05-19T00:19:50;94445.41;;;13.22;86.18
6024;BME280;3040;42.654;23.296;2023-05-19T00:22:17;94325.25;;;12.52;85.10
6024;BME280;3040;42.654;23.296;2023-05-19T00:24:43;94305.22;;;12.11;85.93
6024;BME280;3040;42.654;23.296;2023-05-19T00:27:10;94440.00;;;13.03;87.14
6024;BME280;3040;42.654;23.296;2023-05-19T00:29:37;94434.66;;;13.03;87.41
6024;BME280;3040;42.654;23.296;2023-05-19T00:32:04;94435.69;;;13.14;86.84
6024;BME280;3040;42.654;23.296;2023-05-19T00:34:32;94432.22;;;13.29;85.61
6024;BME280;3040;42.654;23.296;2023-05-19T00:36:59;94440.56;;;13.28;85.78
6024;BME280;3040;42.654;23.296;2023-05-19T00:39:26;94416.59;;;13.12;86.14
6024;BME280;3040;42.654;23.296;2023-05-19T00:41:53;94422.50;;;13.21;85.41
6024;BME280;3040;42.654;23.296;2023-05-19T00:44:20;94438.25;;;13.26;84.68
6024;BME280;3040;42.654;23.296;2023-05-19T00:46:46;94430.75;;;13.32;84.28
6024;BME280;3040;42.654;23.296;2023-05-19T00:49:13;94428.00;;;13.28;83.82
6024;BME280;3040;42.654;23.296;2023-05-19T00:51:42;94435.31;;;13.31;84.39
6024;BME280;3040;42.654;23.296;2023-05-19T00:54:09;94402.34;;;13.08;84.81
6024;BME280;3040;42.654;23.296;2023-05-19T00:56:35;94426.72;;;13.22;83.86
6024;BME280;3040;42.654;23.296;2023-05-19T00:59:03;94423.00;;;13.11;84.33
6024;BME280;3040;42.654;23.296;2023-05-19T01:01:30;94430.50;;;13.21;85.10
6024;BME280;3040;42.654;23.296;2023-05-19T01:03:57;94421.69;;;13.36;83.76
6024;BME280;3040;42.654;23.296;2023-05-19T01:06:24;94420.97;;;13.39;83.78
6024;BME280;3040;42.654;23.296;2023-05-19T01:08:53;94399.66;;;13.08;83.27
6024;BME280;3040;42.654;23.296;2023-05-19T01:11:22;94425.06;;;13.33;83.64
6024;BME280;3040;42.654;23.296;2023-05-19T01:13:49;94424.25;;;13.14;85.06
6024;BME280;3040;42.654;23.296;2023-05-19T01:16:21;94428.88;;;13.17;85.22
6024;BME280;3040;42.654;23.296;2023-05-19T01:18:57;94434.66;;;13.03;85.42
6024;BME280;3040;42.654;23.296;2023-05-19T01:21:44;94440.16;;;13.10;85.76
6024;BME280;3040;42.654;23.296;2023-05-19T01:24:38;94434.38;;;13.08;86.10
6024;BME280;3040;42.654;23.296;2023-05-19T01:27:32;94431.41;;;12.94;86.72
6024;BME280;3040;42.654;23.296;2023-05-19T01:30:25;94427.91;;;13.09;86.19
6024;BME280;3040;42.654;23.296;2023-05-19T01:32:54;94435.34;;;13.00;85.76
6024;BME280;3040;42.654;23.296;2023-05-19T01:35:24;94420.03;;;12.97;85.50
6024;BME280;3040;42.654;23.296;2023-05-19T01:37:54;94420.56;;;12.87;85.46
6024;BME280;3040;42.654;23.296;2023-05-19T01:40:22;94428.22;;;12.88;86.10
6024;BME280;3040;42.654;23.296;2023-05-19T01:42:51;94421.25;;;12.84;86.74
6024;BME280;3040;42.654;23.296;2023-05-19T01:45:20;94430.03;;;13.00;85.51
6024;BME280;3040;42.654;23.296;2023-05-19T01:47:50;94427.78;;;12.86;85.85
6024;BME280;3040;42.654;23.296;2023-05-19T01:50:18;94433.19;;;13.05;86.22
6024;BME280;3040;42.654;23.296;2023-05-19T01:52:45;94434.44;;;12.77;86.54
6024;BME280;3040;42.654;23.296;2023-05-19T01:55:12;94439.41;;;12.94;86.43
6024;BME280;3040;42.654;23.296;2023-05-19T01:57:45;94441.97;;;13.22;85.71
6024;BME280;3040;42.654;23.296;2023-05-19T02:00:19;94445.50;;;13.10;85.97
6024;BME280;3040;42.654;23.296;2023-05-19T02:02:55;94418.34;;;12.57;87.06
6024;BME280;3040;42.654;23.296;2023-05-19T02:05:30;94439.84;;;12.80;87.85
6024;BME280;3040;42.654;23.296;2023-05-19T02:08:05;94437.53;;;12.94;88.27
6024;BME280;3040;42.654;23.296;2023-05-19T02:10:39;94442.75;;;12.91;88.38
6024;BME280;3040;42.654;23.296;2023-05-19T02:13:10;94434.00;;;12.75;88.26
6024;BME280;3040;42.654;23.296;2023-05-19T02:15:40;94444.84;;;12.82;88.05
6024;BME280;3040;42.654;23.296;2023-05-19T02:18:10;94446.13;;;12.72;89.18
6024;BME280;3040;42.654;23.296;2023-05-19T02:20:38;94443.63;;;12.79;89.13
6024;BME280;3040;42.654;23.296;2023-05-19T02:23:05;94448.38;;;12.70;89.29
6024;BME280;3040;42.654;23.296;2023-05-19T02:25:32;94443.72;;;12.83;89.32
6024;BME280;3040;42.654;23.296;2023-05-19T02:27:58;94445.69;;;12.86;89.00
6024;BME280;3040;42.654;23.296;2023-05-19T02:30:25;94442.44;;;12.77;89.41
6024;BME280;3040;42.654;23.296;2023-05-19T02:32:52;94440.88;;;12.76;90.01
6024;BME280;3040;42.654;23.296;2023-05-19T02:35:21;94400.09;;;12.44;89.72
6024;BME280;3040;42.654;23.296;2023-05-19T02:37:48;94445.19;;;12.64;88.65
6024;BME280;3040;42.654;23.296;2023-05-19T02:40:15;94443.38;;;12.53;90.81
6024;BME280;3040;42.654;23.296;2023-05-19T02:42:41;94451.72;;;12.51;90.64
6024;BME280;3040;42.654;23.296;2023-05-19T02:45:09;94449.66;;;12.60;90.71
6024;BME280;3040;42.654;23.296;2023-05-19T02:47:35;94446.81;;;12.69;89.42
6024;BME280;3040;42.654;23.296;2023-05-19T02:50:03;94434.25;;;12.54;89.79
6024;BME280;3040;42.654;23.296;2023-05-19T02:52:31;94451.22;;;12.61;89.91
6024;BME280;3040;42.654;23.296;2023-05-19T02:54:58;94450.28;;;12.70;90.31
6024;BME280;3040;42.654;23.296;2023-05-19T02:57:25;94451.38;;;12.69;88.77
6024;BME280;3040;42.654;23.296;2023-05-19T02:59:52;94457.75;;;12.48;90.33
6024;BME280;3040;42.654;23.296;2023-05-19T03:02:19;94452.84;;;12.50;90.12
6024;BME280;3040;42.654;23.296;2023-05-19T03:04:45;94459.63;;;12.48;91.20
6024;BME280;3040;42.654;23.296;2023-05-19T03:07:12;94453.63;;;12.35;91.31
6024;BME280;3040;42.654;23.296;2023-05-19T03:09:41;94458.81;;;12.59;91.61
6024;BME280;3040;42.654;23.296;2023-05-19T03:12:08;94454.31;;;12.63;90.53
6024;BME280;3040;42.654;23.296;2023-05-19T03:14:35;94442.94;;;12.35;90.63
6024;BME280;3040;42.654;23.296;2023-05-19T03:17:03;94464.72;;;12.53;91.25
6024;BME280;3040;42.654;23.296;2023-05-19T03:19:31;94461.88;;;12.61;90.65
6024;BME280;3040;42.654;23.296;2023-05-19T03:21:58;94464.28;;;12.67;90.85
6024;BME280;3040;42.654;23.296;2023-05-19T03:24:25;94474.53;;;12.80;89.04
6024;BME280;3040;42.654;23.296;2023-05-19T03:26:53;94355.84;;;11.96;89.76
6024;BME280;3040;42.654;23.296;2023-05-19T03:29:20;94465.84;;;12.68;89.85
6024;BME280;3040;42.654;23.296;2023-05-19T03:31:47;94462.91;;;12.73;90.41
6024;BME280;3040;42.654;23.296;2023-05-19T03:34:13;94463.69;;;12.89;90.10
6024;BME280;3040;42.654;23.296;2023-05-19T03:36:40;94462.81;;;12.85;89.20
6024;BME280;3040;42.654;23.296;2023-05-19T03:39:09;94458.78;;;12.91;89.38
6024;BME280;3040;42.654;23.296;2023-05-19T03:41:36;94459.84;;;12.71;90.17
6024;BME280;3040;42.654;23.296;2023-05-19T03:44:04;94463.63;;;12.70;89.52
6024;BME280;3040;42.654;23.296;2023-05-19T03:46:31;94446.06;;;12.69;90.00
6024;BME280;3040;42.654;23.296;2023-05-19T03:48:58;94456.72;;;12.69;90.63
6024;BME280;3040;42.654;23.296;2023-05-19T03:51:25;94459.91;;;12.74;90.35
6024;BME280;3040;42.654;23.296;2023-05-19T03:53:54;94462.06;;;13.00;89.82
6024;BME280;3040;42.654;23.296;2023-05-19T03:56:21;94466.06;;;13.10;87.32
6024;BME280;3040;42.654;23.296;2023-05-19T03:58:49;94463.00;;;12.60;89.34
6024;BME280;3040;42.654;23.296;2023-05-19T04:01:17;94461.38;;;12.72;90.10
6024;BME280;3040;42.654;23.296;2023-05-19T04:03:44;94473.16;;;12.86;88.91
6024;BME280;3040;42.654;23.296;2023-05-19T04:06:11;94470.31;;;12.63;89.93
6024;BME280;3040;42.654;23.296;2023-05-19T04:08:38;94473.06;;;12.51;91.21
6024;BME280;3040;42.654;23.296;2023-05-19T04:11:05;94480.81;;;12.41;91.24
6024;BME280;3040;42.654;23.296;2023-05-19T04:13:32;94490.56;;;12.21;92.55
6024;BME280;3040;42.654;23.296;2023-05-19T04:15:59;94474.91;;;12.19;93.85
6024;BME280;3040;42.654;23.296;2023-05-19T04:18:28;94478.47;;;12.39;92.82
6024;BME280;3040;42.654;23.296;2023-05-19T04:20:54;94475.59;;;12.16;92.71
6024;BME280;3040;42.654;23.296;2023-05-19T04:23:21;94479.91;;;12.21;93.05
6024;BME280;3040;42.654;23.296;2023-05-19T04:25:48;94455.97;;;12.09;91.41
6024;BME280;3040;42.654;23.296;2023-05-19T04:28:15;94487.47;;;12.19;92.71
6024;BME280;3040;42.654;23.296;2023-05-19T04:30:43;94489.72;;;12.17;93.50
6024;BME280;3040;42.654;23.296;2023-05-19T04:33:10;94492.97;;;12.26;92.98
6024;BME280;3040;42.654;23.296;2023-05-19T04:35:39;94494.75;;;12.50;92.56
6024;BME280;3040;42.654;23.296;2023-05-19T04:38:05;94492.31;;;12.29;92.01
6024;BME280;3040;42.654;23.296;2023-05-19T04:40:34;94496.28;;;12.35;92.85
6024;BME280;3040;42.654;23.296;2023-05-19T04:43:01;94368.91;;;11.57;92.05
6024;BME280;3040;42.654;23.296;2023-05-19T04:45:28;94508.09;;;12.50;92.00
6024;BME280;3040;42.654;23.296;2023-05-19T04:47:57;94508.31;;;12.29;93.00
6024;BME280;3040;42.654;23.296;2023-05-19T04:50:24;94497.22;;;12.43;93.11
6024;BME280;3040;42.654;23.296;2023-05-19T04:52:54;94489.22;;;12.43;92.37
6024;BME280;3040;42.654;23.296;2023-05-19T04:55:23;94494.03;;;12.37;93.52
6024;BME280;3040;42.654;23.296;2023-05-19T04:57:50;94514.59;;;12.37;93.48
6024;BME280;3040;42.654;23.296;2023-05-19T05:00:18;94499.19;;;12.30;94.27
6024;BME280;3040;42.654;23.296;2023-05-19T05:02:45;94501.09;;;12.30;94.01
6024;BME280;3040;42.654;23.296;2023-05-19T05:05:12;94502.09;;;12.25;93.96
6024;BME280;3040;42.654;23.296;2023-05-19T05:07:38;94507.03;;;12.39;93.62
6024;BME280;3040;42.654;23.296;2023-05-19T05:10:08;94501.13;;;12.45;91.99
6024;BME280;3040;42.654;23.296;2023-05-19T05:12:35;94499.41;;;12.53;93.13
6024;BME280;3040;42.654;23.296;2023-05-19T05:15:04;94499.31;;;12.49;92.23
6024;BME280;3040;42.654;23.296;2023-05-19T05:17:32;94499.34;;;12.65;92.97
6024;BME280;3040;42.654;23.296;2023-05-19T05:20:00;94497.88;;;12.68;92.50
6024;BME280;3040;42.654;23.296;2023-05-19T05:22:28;94493.38;;;13.03;92.86
6024;BME280;3040;42.654;23.296;2023-05-19T05:24:55;94501.34;;;13.31;90.44
6024;BME280;3040;42.654;23.296;2023-05-19T05:27:23;94501.66;;;13.29;89.11
6024;BME280;3040;42.654;23.296;2023-05-19T05:29:51;94447.50;;;13.13;89.61
6024;BME280;3040;42.654;23.296;2023-05-19T05:32:18;94493.75;;;13.68;89.62
6024;BME280;3040;42.654;23.296;2023-05-19T05:34:45;94497.81;;;13.62;88.43
6024;BME280;3040;42.654;23.296;2023-05-19T05:37:12;94483.97;;;13.56;88.28
6024;BME280;3040;42.654;23.296;2023-05-19T05:39:39;94508.50;;;13.62;87.53
6024;BME280;3040;42.654;23.296;2023-05-19T05:42:06;94465.59;;;13.93;89.12
6024;BME280;3040;42.654;23.296;2023-05-19T05:44:35;94506.97;;;13.99;85.11
6024;BME280;3040;42.654;23.296;2023-05-19T05:47:03;94474.88;;;13.61;86.88
6024;BME280;3040;42.654;23.296;2023-05-19T05:49:30;94504.84;;;13.70;87.13
6024;BME280;3040;42.654;23.296;2023-05-19T05:52:01;94477.59;;;13.80;88.79
6024;BME280;3040;42.654;23.296;2023-05-19T05:54:28;94506.84;;;14.31;87.10
6024;BME280;3040;42.654;23.296;2023-05-19T05:56:56;94512.56;;;14.71;85.87
6024;BME280;3040;42.654;23.296;2023-05-19T05:59:23;94506.53;;;14.97;85.15
6024;BME280;3040;42.654;23.296;2023-05-19T06:01:51;94506.09;;;15.18;83.54
6024;BME280;3040;42.654;23.296;2023-05-19T06:04:18;94526.28;;;15.34;82.04
6024;BME280;3040;42.654;23.296;2023-05-19T06:06:45;94529.75;;;15.61;82.95
6024;BME280;3040;42.654;23.296;2023-05-19T06:09:12;94536.25;;;15.86;80.90
6024;BME280;3040;42.654;23.296;2023-05-19T06:11:39;94543.97;;;15.92;79.39
6024;BME280;3040;42.654;23.296;2023-05-19T06:14:05;94542.81;;;16.19;80.25
6024;BME280;3040;42.654;23.296;2023-05-19T06:16:32;94548.34;;;16.33;77.94
6024;BME280;3040;42.654;23.296;2023-05-19T06:19:01;94536.28;;;16.53;75.96
6024;BME280;3040;42.654;23.296;2023-05-19T06:21:27;94534.59;;;16.68;75.99
6024;BME280;3040;42.654;23.296;2023-05-19T06:23:54;94532.78;;;16.83;76.65
6024;BME280;3040;42.654;23.296;2023-05-19T06:26:21;94540.31;;;17.07;76.28
6024;BME280;3040;42.654;23.296;2023-05-19T06:28:48;94542.78;;;17.26;75.12
6024;BME280;3040;42.654;23.296;2023-05-19T06:31:15;94551.72;;;17.37;72.10
6024;BME280;3040;42.654;23.296;2023-05-19T06:33:42;94537.25;;;17.53;70.90
6024;BME280;3040;42.654;23.296;2023-05-19T06:36:10;94548.72;;;17.46;70.17
6024;BME280;3040;42.654;23.296;2023-05-19T06:38:38;94541.41;;;16.99;71.04
6024;BME280;3040;42.654;23.296;2023-05-19T06:41:05;94527.19;;;16.28;72.52
6024;BME280;3040;42.654;23.296;2023-05-19T06:43:32;94542.28;;;16.70;73.75
6024;BME280;3040;42.654;23.296;2023-05-19T06:45:59;94545.31;;;17.05;73.86
6024;BME280;3040;42.654;23.296;2023-05-19T06:48:25;94541.03;;;17.44;71.92
6024;BME280;3040;42.654;23.296;2023-05-19T06:50:52;94548.13;;;17.67;71.46
6024;BME280;3040;42.654;23.296;2023-05-19T06:53:20;94546.72;;;17.87;70.04
6024;BME280;3040;42.654;23.296;2023-05-19T06:55:47;94530.63;;;17.94;67.85
6024;BME280;3040;42.654;23.296;2023-05-19T06:58:15;94553.16;;;18.41;66.63
6024;BME280;3040;42.654;23.296;2023-05-19T07:00:42;94555.56;;;18.63;65.10
6024;BME280;3040;42.654;23.296;2023-05-19T07:03:09;94555.28;;;18.86;65.28
6024;BME280;3040;42.654;23.296;2023-05-19T07:05:36;94550.28;;;19.02;65.06
6024;BME280;3040;42.654;23.296;2023-05-19T07:08:03;94555.72;;;19.38;65.77
6024;BME280;3040;42.654;23.296;2023-05-19T07:10:32;94555.00;;;19.52;63.20
6024;BME280;3040;42.654;23.296;2023-05-19T07:12:59;94553.44;;;19.58;61.40
6024;BME280;3040;42.654;23.296;2023-05-19T07:15:26;94566.50;;;19.91;59.43
6024;BME280;3040;42.654;23.296;2023-05-19T07:17:53;94553.84;;;19.63;59.20
6024;BME280;3040;42.654;23.296;2023-05-19T07:20:19;94569.22;;;19.87;60.03
6024;BME280;3040;42.654;23.296;2023-05-19T07:22:46;94566.91;;;19.89;61.10
6024;BME280;3040;42.654;23.296;2023-05-19T07:25:13;94568.03;;;20.17;61.38
6024;BME280;3040;42.654;23.296;2023-05-19T07:27:41;94571.09;;;20.19;59.13
6024;BME280;3040;42.654;23.296;2023-05-19T07:30:08;94576.06;;;20.38;58.16
6024;BME280;3040;42.654;23.296;2023-05-19T07:32:35;94572.53;;;20.59;58.18
6024;BME280;3040;42.654;23.296;2023-05-19T07:35:04;94573.22;;;20.81;58.00
6024;BME280;3040;42.654;23.296;2023-05-19T07:37:31;94568.22;;;20.76;58.22
6024;BME280;3040;42.654;23.296;2023-05-19T07:39:58;94562.00;;;20.82;57.89
6024;BME280;3040;42.654;23.296;2023-05-19T07:42:25;94567.78;;;20.88;59.29
6024;BME280;3040;42.654;23.296;2023-05-19T07:44:53;94558.47;;;20.96;59.30
6024;BME280;3040;42.654;23.296;2023-05-19T07:47:20;94473.78;;;20.47;58.00
6024;BME280;3040;42.654;23.296;2023-05-19T07:49:46;94573.03;;;21.12;56.93
6024;BME280;3040;42.654;23.296;2023-05-19T07:52:13;94569.94;;;21.14;56.93
6024;BME280;3040;42.654;23.296;2023-05-19T07:54:42;94555.31;;;21.15;58.33
6024;BME280;3040;42.654;23.296;2023-05-19T07:57:09;94560.28;;;21.13;55.22
6024;BME280;3040;42.654;23.296;2023-05-19T07:59:36;94567.06;;;20.77;56.30
6024;BME280;3040;42.654;23.296;2023-05-19T08:02:04;94563.28;;;20.56;56.28
6024;BME280;3040;42.654;23.296;2023-05-19T08:04:31;94559.75;;;20.70;59.91
6024;BME280;3040;42.654;23.296;2023-05-19T08:06:58;94563.94;;;20.82;56.81
6024;BME280;3040;42.654;23.296;2023-05-19T08:09:25;94561.72;;;20.62;57.81
6024;BME280;3040;42.654;23.296;2023-05-19T08:11:51;94562.66;;;19.39;62.17
6024;BME280;3040;42.654;23.296;2023-05-19T08:14:18;94561.16;;;19.52;62.46
6024;BME280;3040;42.654;23.296;2023-05-19T08:16:47;94560.72;;;19.43;61.96
6024;BME280;3040;42.654;23.296;2023-05-19T08:19:15;94562.31;;;19.58;61.48
6024;BME280;3040;42.654;23.296;2023-05-19T08:21:42;94564.22;;;19.75;59.24
6024;BME280;3040;42.654;23.296;2023-05-19T08:24:09;94564.22;;;19.93;60.16
6024;BME280;3040;42.654;23.296;2023-05-19T08:26:35;94560.75;;;19.85;59.20
6024;BME280;3040;42.654;23.296;2023-05-19T08:29:02;94565.72;;;20.05;58.72
6024;BME280;3040;42.654;23.296;2023-05-19T08:31:29;94543.66;;;20.38;58.71
6024;BME280;3040;42.654;23.296;2023-05-19T08:33:56;94557.06;;;20.74;60.57
6024;BME280;3040;42.654;23.296;2023-05-19T08:36:24;94555.06;;;20.85;58.74
6024;BME280;3040;42.654;23.296;2023-05-19T08:38:51;94552.19;;;21.17;58.63
6024;BME280;3040;42.654;23.296;2023-05-19T08:41:18;94563.94;;;21.51;56.97
6024;BME280;3040;42.654;23.296;2023-05-19T08:43:45;94559.69;;;21.46;55.87
6024;BME280;3040;42.654;23.296;2023-05-19T08:46:12;94547.19;;;21.08;56.58
6024;BME280;3040;42.654;23.296;2023-05-19T08:48:42;94556.13;;;21.01;56.69
6024;BME280;3040;42.654;23.296;2023-05-19T08:51:15;94545.81;;;21.44;58.75
6024;BME280;3040;42.654;23.296;2023-05-19T08:53:47;94557.56;;;21.75;58.89
6024;BME280;3040;42.654;23.296;2023-05-19T08:56:18;94550.75;;;22.01;56.51
6024;BME280;3040;42.654;23.296;2023-05-19T08:58:47;94551.59;;;21.91;57.46
6024;BME280;3040;42.654;23.296;2023-05-19T09:01:15;94554.56;;;22.07;55.77
6024;BME280;3040;42.654;23.296;2023-05-19T09:03:42;94544.22;;;22.32;55.51
6024;BME280;3040;42.654;23.296;2023-05-19T09:06:09;94543.91;;;21.86;53.49
6024;BME280;3040;42.654;23.296;2023-05-19T09:08:38;94555.53;;;21.83;56.38
6024;BME280;3040;42.654;23.296;2023-05-19T09:11:06;94545.44;;;21.87;56.17
6024;BME280;3040;42.654;23.296;2023-05-19T09:13:34;94548.84;;;21.98;54.14
6024;BME280;3040;42.654;23.296;2023-05-19T09:16:01;94521.81;;;21.91;55.81
6024;BME280;3040;42.654;23.296;2023-05-19T09:18:28;94531.91;;;22.24;56.61
6024;BME280;3040;42.654;23.296;2023-05-19T09:20:56;94538.72;;;22.73;55.43
6024;BME280;3040;42.654;23.296;2023-05-19T09:23:26;94533.16;;;23.15;52.55
6024;BME280;3040;42.654;23.296;2023-05-19T09:25:55;94452.66;;;23.04;54.17
6024;BME280;3040;42.654;23.296;2023-05-19T09:28:24;94528.97;;;23.83;52.88
6024;BME280;3040;42.654;23.296;2023-05-19T09:31:03;94521.91;;;23.66;50.33
6024;BME280;3040;42.654;23.296;2023-05-19T09:33:32;94441.16;;;22.97;51.36
6024;BME280;3040;42.654;23.296;2023-05-19T09:35:59;94526.03;;;23.74;51.40
6024;BME280;3040;42.654;23.296;2023-05-19T09:38:26;94518.78;;;23.68;49.26
6024;BME280;3040;42.654;23.296;2023-05-19T09:40:55;94521.06;;;23.92;50.89
6024;BME280;3040;42.654;23.296;2023-05-19T09:43:26;94526.78;;;24.18;49.14
6024;BME280;3040;42.654;23.296;2023-05-19T09:45:54;94521.69;;;24.43;48.37
6024;BME280;3040;42.654;23.296;2023-05-19T09:48:21;94521.03;;;24.75;47.92
6024;BME280;3040;42.654;23.296;2023-05-19T09:50:48;94520.03;;;24.85;46.10
6024;BME280;3040;42.654;23.296;2023-05-19T09:53:16;94517.03;;;24.99;48.17
6024;BME280;3040;42.654;23.296;2023-05-19T09:55:43;94517.78;;;25.20;45.91
6024;BME280;3040;42.654;23.296;2023-05-19T09:58:15;94516.28;;;25.15;45.22
6024;BME280;3040;42.654;23.296;2023-05-19T10:00:43;94500.56;;;24.87;45.16
6024;BME280;3040;42.654;23.296;2023-05-19T10:03:11;94511.75;;;24.72;45.45
6024;BME280;3040;42.654;23.296;2023-05-19T10:05:39;94510.66;;;24.50;47.27
6024;BME280;3040;42.654;23.296;2023-05-19T10:08:07;94507.84;;;24.73;44.78
6024;BME280;3040;42.654;23.296;2023-05-19T10:10:35;94513.94;;;25.17;42.76
6024;BME280;3040;42.654;23.296;2023-05-19T10:13:03;94506.22;;;25.48;44.48
6024;BME280;3040;42.654;23.296;2023-05-19T10:15:31;94510.22;;;25.76;43.13
6024;BME280;3040;42.654;23.296;2023-05-19T10:17:59;94490.81;;;25.74;43.60
6024;BME280;3040;42.654;23.296;2023-05-19T10:20:29;94498.97;;;25.41;43.64
6024;BME280;3040;42.654;23.296;2023-05-19T10:22:57;94497.78;;;25.75;43.82
6024;BME280;3040;42.654;23.296;2023-05-19T10:25:23;94478.34;;;25.89;43.07
6024;BME280;3040;42.654;23.296;2023-05-19T10:27:57;94498.97;;;25.90;43.02
6024;BME280;3040;42.654;23.296;2023-05-19T10:30:28;94499.31;;;25.76;39.01
6024;BME280;3040;42.654;23.296;2023-05-19T10:33:00;94492.09;;;26.14;40.56
6024;BME280;3040;42.654;23.296;2023-05-19T10:38:26;94491.84;;;26.79;40.65
6024;BME280;3040;42.654;23.296;2023-05-19T10:41:01;94488.75;;;26.64;39.99
6024;BME280;3040;42.654;23.296;2023-05-19T10:43:38;94489.78;;;26.42;39.97
6024;BME280;3040;42.654;23.296;2023-05-19T10:46:10;94493.69;;;26.12;37.82
6024;BME280;3040;42.654;23.296;2023-05-19T10:48:43;94485.28;;;26.64;38.55
6024;BME280;3040;42.654;23.296;2023-05-19T10:51:10;94393.38;;;26.61;38.18
6024;BME280;3040;42.654;23.296;2023-05-19T10:53:40;94473.06;;;26.81;36.02
6024;BME280;3040;42.654;23.296;2023-05-19T10:56:11;94472.50;;;25.58;38.80
6024;BME280;3040;42.654;23.296;2023-05-19T10:58:53;94477.03;;;25.65;40.51
6024;BME280;3040;42.654;23.296;2023-05-19T11:01:20;94478.56;;;25.66;42.39
6024;BME280;3040;42.654;23.296;2023-05-19T11:03:51;94480.56;;;25.45;42.23
6024;BME280;3040;42.654;23.296;2023-05-19T11:06:19;94482.13;;;25.46;42.31
6024;BME280;3040;42.654;23.296;2023-05-19T11:08:46;94476.66;;;25.14;41.37
6024;BME280;3040;42.654;23.296;2023-05-19T11:11:17;94481.94;;;25.21;42.33
6024;BME280;3040;42.654;23.296;2023-05-19T11:13:46;94455.41;;;25.25;38.41
6024;BME280;3040;42.654;23.296;2023-05-19T11:16:13;94484.94;;;25.59;38.41
6024;BME280;3040;42.654;23.296;2023-05-19T11:18:40;94468.69;;;25.56;38.31
6024;BME280;3040;42.654;23.296;2023-05-19T11:21:08;94478.38;;;25.24;38.30
6024;BME280;3040;42.654;23.296;2023-05-19T11:23:37;94472.22;;;25.04;39.39
6024;BME280;3040;42.654;23.296;2023-05-19T11:26:05;94462.09;;;24.68;41.14
6024;BME280;3040;42.654;23.296;2023-05-19T11:28:33;94441.16;;;24.49;40.51
6024;BME280;3040;42.654;23.296;2023-05-19T11:31:01;94453.78;;;24.59;40.66
6024;BME280;3040;42.654;23.296;2023-05-19T11:33:28;94456.00;;;24.64;41.50
6024;BME280;3040;42.654;23.296;2023-05-19T11:35:57;94451.28;;;24.29;41.25
6024;BME280;3040;42.654;23.296;2023-05-19T11:38:27;94433.97;;;24.00;40.16
6024;BME280;3040;42.654;23.296;2023-05-19T11:40:55;94436.00;;;24.15;41.22
6024;BME280;3040;42.654;23.296;2023-05-19T11:43:22;94454.06;;;24.25;42.40
6024;BME280;3040;42.654;23.296;2023-05-19T11:45:49;94463.47;;;24.41;43.04
6024;BME280;3040;42.654;23.296;2023-05-19T11:48:19;94434.72;;;24.00;43.04
6024;BME280;3040;42.654;23.296;2023-05-19T11:50:46;94455.41;;;23.74;45.18
6024;BME280;3040;42.654;23.296;2023-05-19T11:53:14;94469.41;;;22.99;49.42
6024;BME280;3040;42.654;23.296;2023-05-19T11:55:44;94471.09;;;21.99;59.05
6024;BME280;3040;42.654;23.296;2023-05-19T11:58:11;94495.03;;;21.07;64.88
6024;BME280;3040;42.654;23.296;2023-05-19T12:00:39;94511.66;;;20.26;65.68
6024;BME280;3040;42.654;23.296;2023-05-19T12:03:06;94511.03;;;19.26;61.82
6024;BME280;3040;42.654;23.296;2023-05-19T12:05:35;94506.22;;;18.45;63.25
6024;BME280;3040;42.654;23.296;2023-05-19T12:08:03;94521.91;;;18.18;65.38
6024;BME280;3040;42.654;23.296;2023-05-19T12:10:31;94484.97;;;17.46;67.72
6024;BME280;3040;42.654;23.296;2023-05-19T12:13:02;94547.06;;;17.31;69.08
6024;BME280;3040;42.654;23.296;2023-05-19T12:15:30;94523.94;;;16.79;73.74
6024;BME280;3040;42.654;23.296;2023-05-19T12:18:00;94530.22;;;16.56;75.08
6024;BME280;3040;42.654;23.296;2023-05-19T12:20:28;94534.25;;;16.10;81.99
6024;BME280;3040;42.654;23.296;2023-05-19T12:22:57;94546.19;;;15.86;81.63
6024;BME280;3040;42.654;23.296;2023-05-19T12:25:24;94548.06;;;15.56;86.35
6024;BME280;3040;42.654;23.296;2023-05-19T12:27:55;94554.06;;;15.26;85.48
6024;BME280;3040;42.654;23.296;2023-05-19T12:30:26;94546.53;;;15.09;86.80
6024;BME280;3040;42.654;23.296;2023-05-19T12:32:53;94543.91;;;15.13;91.63
6024;BME280;3040;42.654;23.296;2023-05-19T12:35:25;94524.84;;;14.95;89.72
6024;BME280;3040;42.654;23.296;2023-05-19T12:37:52;94536.53;;;15.06;89.94
6024;BME280;3040;42.654;23.296;2023-05-19T12:40:19;94524.47;;;15.19;86.68
6024;BME280;3040;42.654;23.296;2023-05-19T12:42:46;94524.06;;;15.40;86.74
6024;BME280;3040;42.654;23.296;2023-05-19T12:45:14;94515.22;;;15.62;80.41
6024;BME280;3040;42.654;23.296;2023-05-19T12:47:46;94511.59;;;15.77;80.23
6024;BME280;3040;42.654;23.296;2023-05-19T12:50:13;94518.88;;;16.07;79.27
6024;BME280;3040;42.654;23.296;2023-05-19T12:52:41;94501.41;;;16.20;78.78
6024;BME280;3040;42.654;23.296;2023-05-19T12:55:09;94510.44;;;16.38;75.41
6024;BME280;3040;42.654;23.296;2023-05-19T12:57:37;94492.66;;;16.60;74.98
6024;BME280;3040;42.654;23.296;2023-05-19T13:00:05;94490.09;;;16.71;73.41
6024;BME280;3040;42.654;23.296;2023-05-19T13:02:45;94468.59;;;16.71;69.29
6024;BME280;3040;42.654;23.296;2023-05-19T13:05:21;94499.16;;;16.96;70.44
6024;BME280;3040;42.654;23.296;2023-05-19T13:07:53;94490.81;;;17.08;70.28
6024;BME280;3040;42.654;23.296;2023-05-19T13:10:20;94477.09;;;17.20;66.14
6024;BME280;3040;42.654;23.296;2023-05-19T13:12:47;94395.78;;;16.76;64.43
6024;BME280;3040;42.654;23.296;2023-05-19T13:15:14;94485.75;;;17.50;63.85
6024;BME280;3040;42.654;23.296;2023-05-19T13:17:41;94475.84;;;17.62;65.81